Adamowo, Poland

7:51 PM CEST on July 28, 2017 (GMT +0200)
Pesy 1 | | Change Station

Elev 351 ft 52.76 °N, 20.18 °E | Updated 3 minutes ago

Rain
Rain
63.7 °F
Feels Like 63.7 °F
N
5.0
Wind Variable Wind from WNW
Gusts 8.7 mph

Today
High -- | Low -- °F
--% Chance of Precip.
Yesterday
High -- | Low -- °F
Precip. -- in
Pressure 29.80 in
Visibility 6.2 miles
Clouds Few 6400 ft
Dew Point 58 °F
Humidity 80%
Rainfall 0.10 in
Snow Depth Not available.
4:51 AM 8:39 PM
Waxing Crescent, 32% visible
METAR EPMO 281730Z 26010KT 9999 VCTS FEW064CB 21/14 Q1009
Pressure 29.80 in
Visibility 6.2 miles
Clouds Few 6400 ft
Dew Point 58 °F
Humidity 80%
Rainfall 0.10 in
Snow Depth Not available.
4:51 AM 8:39 PM
Waxing Crescent, 32% visible
METAR EPMO 281730Z 26010KT 9999 VCTS FEW064CB 21/14 Q1009

Get Severe Weather Alerts

Thanks for signing up!

Be on the lookout for a verification email in your inbox.

You'll start receiving the daily forecast at 6 AM.

×

10-Day Weather Forecast

×

Almanac

Astronomy

Jul. 28, 2017 Rise Set
Actual Time
Civil Twilight
Nautical Twilight
Astronomical Twilight
Moon
Length of Visible Light
Length of Day
Tomorrow will be .
, % of the Moon is Illuminated

Today's Extremes

Country Highs Country Lows

Community

WunderPhotos

Category 6

Welcome to Category 6. This is the collective home for Weather Underground's featured writeups by Dr. Jeff Masters (right), Bob Henson (left), Chris Burt, and other regular contributors.

Nearby

Air Quality

  Air Quality AQ Index Pollutant
Not available.

Snow Depth

Station Depth Elevation

Earthquake Activity

City Distance Mag. Time & Date
Minimum magnitude displayed is 2.5.

Coastal Water Temperatures

Place Temperature

Stations

Nearby Weather Stations

Station Location Temp. Windchill Dew Point Humidity Wind Precip. Elev Updated Type